Terminal Aerodrome Forecast
Issued by NWS

Home | Current Version | Previous Version | Text Only | Print | Product List | Glossary On
Versions: 1 2 3 4 5 6 7 8 9 10 11 12 13 14 15 16 17 18 19 20 21 22 23 24 25 26 27 28
635
FTUS44 KHGX 082327
TAFUTS
TAF
KUTS 082327Z 0900/0924 32016G26KT P6SM SKC
      TEMPO 0900/0902 32011KT
     FM090200 32009KT P6SM SKC
     FM091500 33010KT P6SM SKC=

USA.gov is the U.S. government's official web portal to all federal, state and local government web resources and services.